Time;durP1;ratioP1;P1;durP2;ratioP2;P2;SDS_P1;SDS_P2;PMS_P1;PMS_P2;Temp;Humidity;BMP_temperature;BMP_pressure;BME280_temperature;BME280_humidity;BME280_pressure;Samples;Min_cycle;Max_cycle;Signal;HPM_P1;HPM_P2
2023/06/07 00:00:00;;;;;;;6.68;3.75;;;19.50;83.30;;;;;;5017864;28;20194;-65
2023/06/07 00:02:27;;;;;;;5.75;3.65;;;19.50;82.70;;;;;;5017194;28;20489;-65
2023/06/07 00:04:53;;;;;;;3.83;3.08;;;19.50;82.40;;;;;;5015423;28;20054;-66
2023/06/07 00:07:19;;;;;;;4.47;3.30;;;19.50;82.20;;;;;;5017298;28;20132;-65
2023/06/07 00:09:45;;;;;;;3.80;3.00;;;19.50;82.80;;;;;;5018846;28;20037;-65
2023/06/07 00:12:10;;;;;;;4.47;3.33;;;19.40;81.60;;;;;;5016784;28;20519;-65
2023/06/07 00:14:36;;;;;;;4.45;3.10;;;19.50;81.30;;;;;;5018066;28;20030;-65
2023/06/07 00:17:02;;;;;;;3.08;2.78;;;19.40;81.30;;;;;;5017683;28;20037;-66
2023/06/07 00:19:29;;;;;;;4.82;3.20;;;19.40;81.00;;;;;;5016647;28;20162;-66
2023/06/07 00:21:57;;;;;;;3.88;3.17;;;19.40;80.90;;;;;;5019570;28;20029;-65
2023/06/07 00:24:23;;;;;;;3.75;3.13;;;19.40;80.80;;;;;;5016737;28;20059;-66
2023/06/07 00:26:49;;;;;;;4.10;3.03;;;19.40;80.80;;;;;;5018128;28;20056;-66
2023/06/07 00:29:15;;;;;;;3.28;2.90;;;19.40;81.20;;;;;;5012863;28;20017;-64
2023/06/07 00:31:41;;;;;;;4.47;3.03;;;19.30;80.50;;;;;;5001244;28;20033;-65
2023/06/07 00:34:08;;;;;;;3.63;2.97;;;19.30;80.40;;;;;;5014960;28;20076;-65
2023/06/07 00:36:36;;;;;;;6.43;3.13;;;19.30;80.40;;;;;;5000014;28;20039;-64
2023/06/07 00:39:02;;;;;;;4.82;3.33;;;19.20;80.10;;;;;;5016073;28;20041;-64
2023/06/07 00:41:28;;;;;;;6.72;3.13;;;19.20;79.90;;;;;;5012647;28;20041;-64
2023/06/07 00:43:54;;;;;;;4.53;3.40;;;19.20;79.80;;;;;;5015675;28;20033;-65
2023/06/07 00:46:22;;;;;;;2.85;2.55;;;19.10;79.40;;;;;;5012780;28;20445;-65
2023/06/07 00:48:52;;;;;;;3.83;3.05;;;19.00;79.20;;;;;;5015290;28;20116;-65
2023/06/07 00:51:18;;;;;;;3.38;2.70;;;19.00;79.30;;;;;;5010314;28;20096;-64
2023/06/07 00:53:47;;;;;;;3.20;2.50;;;18.90;79.30;;;;;;4997488;28;20087;-64
2023/06/07 00:56:15;;;;;;;3.10;2.72;;;18.90;79.30;;;;;;5012549;28;20030;-65
2023/06/07 00:58:45;;;;;;;3.22;2.85;;;18.90;79.00;;;;;;4993560;28;20033;-64
2023/06/07 01:01:11;;;;;;;3.63;2.63;;;18.80;79.20;;;;;;5013531;28;20025;-65
2023/06/07 01:03:37;;;;;;;4.60;2.83;;;18.80;79.40;;;;;;4995235;28;20063;-65
2023/06/07 01:06:05;;;;;;;3.95;2.58;;;18.80;79.60;;;;;;5015962;28;20029;-64
2023/06/07 01:08:32;;;;;;;4.13;3.17;;;18.70;79.50;;;;;;4992649;28;20041;-65
2023/06/07 01:10:59;;;;;;;3.63;2.33;;;18.70;79.50;;;;;;4996478;28;20069;-65
2023/06/07 01:13:25;;;;;;;4.25;2.75;;;18.70;79.50;;;;;;4994717;28;20029;-65
2023/06/07 01:15:52;;;;;;;3.67;2.67;;;18.70;79.70;;;;;;4993686;28;20748;-66
2023/06/07 01:18:18;;;;;;;2.60;2.40;;;18.70;79.60;;;;;;5012976;28;20064;-66
2023/06/07 01:20:50;;;;;;;2.72;2.40;;;18.70;79.70;;;;;;4995157;28;20033;-66
2023/06/07 01:23:27;;;;;;;2.90;2.60;;;18.60;79.80;;;;;;5012190;28;20046;-65
2023/06/07 01:25:55;;;;;;;4.28;2.67;;;18.60;79.70;;;;;;4988490;28;20397;-66
2023/06/07 01:28:21;;;;;;;4.05;2.72;;;18.60;79.60;;;;;;5012707;28;20029;-65
2023/06/07 01:30:49;;;;;;;3.42;2.22;;;18.70;79.60;;;;;;5016776;28;20045;-64
2023/06/07 01:33:17;;;;;;;3.92;3.08;;;18.70;79.80;;;;;;5008299;28;20812;-65
2023/06/07 01:35:44;;;;;;;2.78;2.28;;;18.70;79.90;;;;;;4978911;28;20045;-66
2023/06/07 01:38:13;;;;;;;3.03;2.70;;;18.60;79.90;;;;;;5013714;28;20040;-65
2023/06/07 01:40:42;;;;;;;3.75;2.60;;;18.60;79.70;;;;;;4995873;28;20029;-66
2023/06/07 01:43:08;;;;;;;4.88;2.85;;;18.70;79.60;;;;;;4991260;28;20412;-65
2023/06/07 01:45:35;;;;;;;3.42;2.80;;;18.60;79.60;;;;;;5012432;28;20095;-65
2023/06/07 01:48:02;;;;;;;2.85;2.40;;;18.60;79.80;;;;;;5012267;28;20040;-65
2023/06/07 01:50:28;;;;;;;3.00;2.70;;;18.60;79.90;;;;;;4997548;28;20101;-64
2023/06/07 01:52:54;;;;;;;4.35;3.08;;;18.60;79.90;;;;;;4999496;28;20041;-65
2023/06/07 01:55:22;;;;;;;3.45;2.45;;;18.60;80.00;;;;;;5017626;28;20081;-64
2023/06/07 01:58:24;;;;;;;3.22;2.60;;;18.60;79.90;;;;;;5019179;28;20084;-64
2023/06/07 02:01:10;;;;;;;5.40;2.65;;;18.60;80.10;;;;;;4986257;28;20100;-64
2023/06/07 02:03:45;;;;;;;2.75;2.45;;;18.50;80.30;;;;;;5013200;28;20049;-65
2023/06/07 02:06:27;;;;;;;3.22;2.65;;;18.50;80.20;;;;;;5008165;28;20048;-66
2023/06/07 02:08:56;;;;;;;2.75;2.33;;;18.50;80.20;;;;;;5012050;28;20037;-65
2023/06/07 02:11:25;;;;;;;2.88;2.58;;;18.50;80.20;;;;;;5001841;28;20049;-65
2023/06/07 02:13:52;;;;;;;5.30;2.75;;;18.50;80.30;;;;;;5020712;28;20076;-65
2023/06/07 02:16:32;;;;;;;2.75;2.45;;;18.50;80.20;;;;;;4995540;28;20038;-66
2023/06/07 02:18:59;;;;;;;3.50;2.63;;;18.50;80.10;;;;;;4997228;28;20064;-66
2023/06/07 02:21:25;;;;;;;4.78;2.90;;;18.50;80.10;;;;;;5001863;28;20033;-64
2023/06/07 02:23:51;;;;;;;4.43;2.95;;;18.50;80.20;;;;;;4993036;28;20041;-65
2023/06/07 02:26:16;;;;;;;8.02;3.15;;;18.50;80.50;;;;;;5017190;28;20038;-65
2023/06/07 02:28:44;;;;;;;4.38;2.80;;;18.50;80.50;;;;;;5014566;28;20022;-65
2023/06/07 02:31:10;;;;;;;4.05;2.67;;;18.50;80.50;;;;;;4996261;28;20056;-65
2023/06/07 02:33:36;;;;;;;4.20;2.70;;;18.50;80.50;;;;;;5010588;28;20034;-64
2023/06/07 02:36:02;;;;;;;3.75;2.60;;;18.50;80.50;;;;;;5014641;28;20033;-65
2023/06/07 02:38:28;;;;;;;3.88;2.47;;;18.40;80.40;;;;;;5011949;28;20630;-64
2023/06/07 02:40:55;;;;;;;4.47;2.83;;;18.40;80.40;;;;;;4996160;28;20037;-65
2023/06/07 02:43:21;;;;;;;3.42;2.35;;;18.40;80.50;;;;;;5012885;28;20160;-64
2023/06/07 02:45:46;;;;;;;2.97;2.60;;;18.40;80.60;;;;;;5010609;28;20281;-65
2023/06/07 02:48:15;;;;;;;4.22;2.25;;;18.40;80.60;;;;;;5013441;28;20021;-64
2023/06/07 02:50:41;;;;;;;4.63;2.80;;;18.40;80.80;;;;;;4995532;28;20049;-65
2023/06/07 02:53:08;;;;;;;2.67;2.25;;;18.40;80.70;;;;;;4994707;28;20032;-63
2023/06/07 02:55:34;;;;;;;4.65;2.67;;;18.40;80.50;;;;;;4993913;28;20030;-64
2023/06/07 02:58:00;;;;;;;3.70;2.83;;;18.40;80.30;;;;;;5012523;28;20033;-63
2023/06/07 03:00:29;;;;;;;2.80;2.50;;;18.40;80.40;;;;;;4995315;28;20056;-65
2023/06/07 03:03:05;;;;;;;5.13;2.87;;;18.40;80.40;;;;;;4990766;28;20037;-64
2023/06/07 03:05:33;;;;;;;3.67;2.40;;;18.40;80.30;;;;;;4994091;28;20364;-65
2023/06/07 03:08:05;;;;;;;4.55;2.72;;;18.40;80.60;;;;;;4991071;28;20044;-64
2023/06/07 03:10:32;;;;;;;4.78;2.60;;;18.40;80.40;;;;;;4992975;28;20029;-65
2023/06/07 03:13:00;;;;;;;3.30;2.60;;;18.40;80.50;;;;;;4991745;28;20030;-66
2023/06/07 03:15:27;;;;;;;4.20;2.33;;;18.40;80.40;;;;;;4993954;28;20033;-65
2023/06/07 03:17:54;;;;;;;4.45;2.70;;;18.40;80.50;;;;;;4995100;28;20036;-67
2023/06/07 03:20:21;;;;;;;3.03;2.58;;;18.40;80.30;;;;;;4993882;28;20030;-64
2023/06/07 03:22:49;;;;;;;2.88;2.38;;;18.40;80.00;;;;;;4995910;28;20036;-65
2023/06/07 03:25:15;;;;;;;4.60;2.30;;;18.40;79.90;;;;;;4995431;28;20093;-65
2023/06/07 03:27:43;;;;;;;4.00;2.33;;;18.40;79.90;;;;;;4996302;28;20054;-64
2023/06/07 03:30:22;;;;;;;2.95;2.40;;;18.40;79.90;;;;;;4996437;28;20506;-65
2023/06/07 03:32:50;;;;;;;4.05;2.38;;;18.40;80.10;;;;;;4996344;28;20089;-65
2023/06/07 03:35:18;;;;;;;3.67;2.17;;;18.40;80.30;;;;;;4994106;28;20532;-62
2023/06/07 03:37:44;;;;;;;4.55;2.50;;;18.50;80.50;;;;;;4989319;28;20030;-62
2023/06/07 03:40:11;;;;;;;3.30;2.55;;;18.50;80.50;;;;;;4993820;28;20132;-62
2023/06/07 03:42:37;;;;;;;3.28;2.47;;;18.50;80.70;;;;;;4992303;28;20060;-63
2023/06/07 03:45:05;;;;;;;3.33;2.38;;;18.50;80.90;;;;;;4993124;28;20784;-63
2023/06/07 03:47:32;;;;;;;4.63;2.30;;;18.50;80.80;;;;;;4992314;28;20389;-63
2023/06/07 03:49:58;;;;;;;4.40;2.88;;;18.50;80.90;;;;;;5012077;28;20017;-63
2023/06/07 03:52:24;;;;;;;3.00;2.42;;;18.50;80.80;;;;;;4992767;28;20037;-64
2023/06/07 03:54:51;;;;;;;3.45;2.22;;;18.50;81.00;;;;;;4992628;28;20033;-62
2023/06/07 03:57:17;;;;;;;4.80;2.55;;;18.50;81.20;;;;;;4991735;28;20025;-64
2023/06/07 03:59:44;;;;;;;2.72;2.20;;;18.50;80.90;;;;;;4989417;28;20046;-64
2023/06/07 04:02:10;;;;;;;2.55;2.30;;;18.60;81.10;;;;;;5010340;28;20436;-63
2023/06/07 04:04:36;;;;;;;2.95;2.35;;;18.60;80.60;;;;;;4992564;28;20113;-63
2023/06/07 04:07:02;;;;;;;4.60;2.60;;;18.60;80.30;;;;;;4988517;28;20065;-63
2023/06/07 04:09:29;;;;;;;3.65;2.70;;;18.60;80.50;;;;;;4993200;28;20054;-63
2023/06/07 04:11:56;;;;;;;4.20;2.65;;;18.60;80.80;;;;;;4995373;28;20032;-63
2023/06/07 04:14:22;;;;;;;4.07;2.38;;;18.60;81.10;;;;;;4990390;28;20128;-64
2023/06/07 04:16:48;;;;;;;2.80;2.10;;;18.60;81.30;;;;;;4995737;28;20112;-64
2023/06/07 04:19:15;;;;;;;3.70;2.42;;;18.70;81.50;;;;;;4996059;28;20025;-63
2023/06/07 04:21:41;;;;;;;2.47;2.28;;;18.70;81.40;;;;;;4997444;28;20096;-63
2023/06/07 04:24:08;;;;;;;3.20;2.83;;;18.70;81.70;;;;;;4996069;28;20033;-63
2023/06/07 04:26:35;;;;;;;5.47;2.70;;;18.70;82.00;;;;;;4993178;28;20120;-64
2023/06/07 04:29:02;;;;;;;3.30;2.33;;;18.70;81.60;;;;;;4998389;28;20034;-64
2023/06/07 04:31:34;;;;;;;2.95;2.38;;;18.70;81.20;;;;;;4995069;28;20493;-63
2023/06/07 04:34:04;;;;;;;3.63;2.33;;;18.80;81.20;;;;;;4993182;28;20025;-64
2023/06/07 04:36:37;;;;;;;2.85;2.47;;;18.70;81.90;;;;;;4989255;28;20037;-63
2023/06/07 04:39:06;;;;;;;3.67;2.50;;;18.80;82.00;;;;;;4991883;28;20071;-64
2023/06/07 04:41:33;;;;;;;3.40;2.42;;;18.80;81.20;;;;;;5014214;28;20034;-64
2023/06/07 04:44:01;;;;;;;2.95;2.30;;;18.90;81.80;;;;;;5013950;28;20533;-64
2023/06/07 04:46:31;;;;;;;2.78;2.28;;;18.90;81.80;;;;;;5000289;28;20029;-63
2023/06/07 04:48:58;;;;;;;2.63;2.33;;;18.90;81.80;;;;;;5011421;28;20422;-64
2023/06/07 04:51:26;;;;;;;2.72;2.28;;;19.00;81.80;;;;;;4987619;28;20034;-66
2023/06/07 04:53:58;;;;;;;3.50;2.42;;;19.00;82.20;;;;;;4997275;28;20021;-66
2023/06/07 04:56:26;;;;;;;3.80;2.80;;;19.00;82.20;;;;;;4997940;28;20125;-65
2023/06/07 04:58:53;;;;;;;2.92;2.33;;;19.10;82.30;;;;;;4996826;28;20504;-64
2023/06/07 05:01:22;;;;;;;5.15;2.50;;;19.10;81.90;;;;;;4997245;28;20060;-65
2023/06/07 05:03:50;;;;;;;3.15;2.40;;;19.20;81.80;;;;;;4997456;28;20025;-64
2023/06/07 05:06:18;;;;;;;3.30;2.22;;;19.20;81.80;;;;;;4995435;28;20030;-64
2023/06/07 05:08:47;;;;;;;3.83;2.28;;;19.20;81.70;;;;;;4995265;28;20034;-63
2023/06/07 05:11:13;;;;;;;4.00;2.72;;;19.20;81.10;;;;;;4995469;28;20029;-63
2023/06/07 05:13:39;;;;;;;5.03;2.50;;;19.30;81.40;;;;;;4996192;28;20492;-65
2023/06/07 05:16:05;;;;;;;5.32;2.83;;;19.30;81.50;;;;;;4993995;28;20057;-65
2023/06/07 05:18:31;;;;;;;5.85;3.28;;;19.30;81.20;;;;;;4992492;28;20672;-65
2023/06/07 05:20:58;;;;;;;2.72;2.22;;;19.40;80.80;;;;;;4994105;28;20037;-65
2023/06/07 05:23:25;;;;;;;2.88;2.15;;;19.40;80.80;;;;;;4992438;28;20038;-63
2023/06/07 05:25:52;;;;;;;3.17;2.20;;;19.40;80.70;;;;;;4995479;28;20029;-64
2023/06/07 05:28:18;;;;;;;5.35;2.50;;;19.40;79.70;;;;;;4993730;28;20032;-64
2023/06/07 05:30:49;;;;;;;4.63;3.00;;;19.50;79.20;;;;;;4992726;28;20060;-65
2023/06/07 05:33:16;;;;;;;4.57;2.65;;;19.50;79.60;;;;;;4991931;28;20027;-64
2023/06/07 05:35:46;;;;;;;5.07;2.63;;;19.50;78.00;;;;;;4995416;28;20022;-64
2023/06/07 05:38:12;;;;;;;6.95;2.95;;;19.60;78.40;;;;;;4991921;28;20481;-65
2023/06/07 05:40:38;;;;;;;5.50;3.05;;;19.60;78.20;;;;;;5009924;28;20039;-66
2023/06/07 05:43:04;;;;;;;4.63;2.63;;;19.70;78.70;;;;;;4988840;28;20025;-66
2023/06/07 05:45:30;;;;;;;5.63;2.88;;;19.80;78.60;;;;;;4990327;28;20072;-65
2023/06/07 05:47:57;;;;;;;4.43;3.25;;;19.80;78.90;;;;;;4989473;28;20037;-66
2023/06/07 05:50:23;;;;;;;4.50;2.38;;;19.90;79.80;;;;;;4990690;28;20026;-66
2023/06/07 05:52:57;;;;;;;4.10;2.60;;;20.00;78.20;;;;;;4988688;28;20026;-65
2023/06/07 05:55:27;;;;;;;3.53;2.60;;;20.10;76.90;;;;;;5013980;28;20028;-65
2023/06/07 05:58:03;;;;;;;4.25;2.50;;;20.20;76.20;;;;;;5012638;28;20029;-65
2023/06/07 06:00:30;;;;;;;5.70;3.00;;;20.30;75.10;;;;;;5014843;28;20034;-65
2023/06/07 06:02:56;;;;;;;4.15;2.42;;;20.40;74.60;;;;;;5010687;28;20037;-65
2023/06/07 06:05:27;;;;;;;4.97;3.08;;;20.50;74.60;;;;;;5010364;28;20077;-66
2023/06/07 06:07:54;;;;;;;3.60;2.30;;;20.60;74.20;;;;;;5007272;28;20025;-65
2023/06/07 06:10:19;;;;;;;5.82;2.83;;;20.80;73.40;;;;;;5010777;28;20528;-66
2023/06/07 06:12:46;;;;;;;3.78;2.83;;;20.90;72.30;;;;;;5013848;28;20032;-65
2023/06/07 06:15:11;;;;;;;6.10;2.90;;;21.00;72.10;;;;;;5009912;28;20470;-63
2023/06/07 06:17:37;;;;;;;3.08;2.38;;;21.10;71.40;;;;;;5011185;28;20030;-63
2023/06/07 06:20:04;;;;;;;3.97;2.80;;;21.30;71.40;;;;;;5013876;28;20060;-63
2023/06/07 06:22:30;;;;;;;3.35;2.65;;;21.40;69.00;;;;;;4991300;28;20048;-63
2023/06/07 06:24:57;;;;;;;3.03;2.30;;;21.40;68.90;;;;;;5014305;28;20041;-63
2023/06/07 06:27:22;;;;;;;3.05;2.65;;;21.50;69.10;;;;;;5011387;28;20034;-63
2023/06/07 06:29:48;;;;;;;3.47;2.63;;;21.50;68.60;;;;;;5014218;28;20028;-63
2023/06/07 06:32:14;;;;;;;4.90;2.70;;;21.60;68.70;;;;;;5014561;28;20034;-63
2023/06/07 06:34:40;;;;;;;4.25;2.88;;;21.70;68.60;;;;;;5013334;28;20034;-64
2023/06/07 06:37:06;;;;;;;3.80;2.80;;;21.70;66.90;;;;;;4998037;28;20067;-63
2023/06/07 06:39:32;;;;;;;10.57;3.10;;;21.80;67.30;;;;;;5009587;28;20030;-64
2023/06/07 06:41:58;;;;;;;4.32;2.72;;;21.90;65.30;;;;;;5013045;28;20428;-63
2023/06/07 06:44:40;;;;;;;3.92;2.72;;;21.90;65.70;;;;;;4993335;28;20025;-63
2023/06/07 06:47:06;;;;;;;7.43;4.47;;;22.00;66.30;;;;;;5007896;28;20072;-63
2023/06/07 06:49:32;;;;;;;5.32;3.15;;;22.10;65.20;;;;;;5010751;28;20033;-64
2023/06/07 06:51:57;;;;;;;9.90;3.03;;;22.20;65.60;;;;;;4990431;28;20052;-63
2023/06/07 06:54:23;;;;;;;7.68;3.00;;;22.30;64.00;;;;;;5008850;28;20120;-63
2023/06/07 06:56:49;;;;;;;4.90;2.65;;;22.30;63.10;;;;;;5012365;28;20037;-63
2023/06/07 06:59:14;;;;;;;7.20;2.65;;;22.40;64.00;;;;;;5010341;28;20116;-63
2023/06/07 07:01:48;;;;;;;5.50;2.50;;;22.50;64.30;;;;;;5012666;28;20041;-63
2023/06/07 07:04:15;;;;;;;5.68;2.33;;;22.60;63.80;;;;;;5010013;28;20044;-63
2023/06/07 07:06:41;;;;;;;7.13;2.55;;;22.60;61.20;;;;;;5013245;28;20029;-64
2023/06/07 07:09:09;;;;;;;4.88;2.60;;;22.70;60.60;;;;;;5010076;28;20026;-63
2023/06/07 07:11:35;;;;;;;6.20;3.05;;;22.80;61.70;;;;;;5006109;28;20038;-64
2023/06/07 07:14:01;;;;;;;5.03;2.45;;;22.90;63.00;;;;;;5006538;28;20091;-66
2023/06/07 07:16:29;;;;;;;5.63;2.65;;;23.00;63.70;;;;;;5009959;28;20038;-63
2023/06/07 07:18:55;;;;;;;6.05;2.95;;;23.10;62.30;;;;;;5012751;28;20430;-64
2023/06/07 07:21:21;;;;;;;4.57;2.67;;;23.30;60.50;;;;;;5009590;28;20087;-64
2023/06/07 07:23:46;;;;;;;6.63;2.72;;;23.40;61.00;;;;;;5012981;28;20720;-64
2023/06/07 07:26:12;;;;;;;8.52;3.03;;;23.50;60.10;;;;;;5009645;28;20057;-63
2023/06/07 07:28:38;;;;;;;8.93;2.60;;;23.60;61.10;;;;;;5008789;28;20437;-64
2023/06/07 07:31:04;;;;;;;5.75;2.83;;;23.70;59.20;;;;;;5012734;28;20421;-65
2023/06/07 07:33:29;;;;;;;4.00;2.85;;;23.80;59.40;;;;;;5009416;28;20104;-64
2023/06/07 07:35:55;;;;;;;5.55;2.40;;;23.90;58.80;;;;;;5012894;28;20064;-63
2023/06/07 07:38:21;;;;;;;5.45;2.45;;;23.90;58.60;;;;;;5009033;28;20955;-64
2023/06/07 07:40:47;;;;;;;6.80;3.80;;;24.00;59.60;;;;;;5012817;28;20403;-58
2023/06/07 07:43:13;;;;;;;8.85;3.55;;;24.20;58.40;;;;;;5006958;28;20517;-58
2023/06/07 07:45:38;;;;;;;11.90;3.00;;;24.20;57.00;;;;;;4994244;28;20032;-59
2023/06/07 07:48:05;;;;;;;5.43;3.35;;;24.10;54.90;;;;;;5010932;28;20030;-59
2023/06/07 07:50:31;;;;;;;4.93;2.85;;;24.20;56.50;;;;;;4999561;28;20848;-58
2023/06/07 07:52:57;;;;;;;8.68;3.45;;;24.30;56.10;;;;;;5014806;28;20040;-59
2023/06/07 07:55:23;;;;;;;4.75;3.08;;;24.40;56.20;;;;;;5012009;28;20041;-62
2023/06/07 07:57:50;;;;;;;6.07;2.92;;;24.40;54.50;;;;;;5013423;28;20136;-60
2023/06/07 08:00:17;;;;;;;5.43;3.05;;;24.50;54.80;;;;;;5012947;28;20113;-59
2023/06/07 08:02:44;;;;;;;3.90;2.63;;;24.50;55.00;;;;;;5013825;28;20068;-58
2023/06/07 08:05:10;;;;;;;4.53;2.55;;;24.50;54.00;;;;;;5012643;28;20132;-59
2023/06/07 08:07:36;;;;;;;3.88;2.70;;;24.50;52.50;;;;;;5013537;28;20113;-60
2023/06/07 08:10:04;;;;;;;7.63;2.50;;;24.60;53.10;;;;;;5015966;28;20101;-60
2023/06/07 08:12:30;;;;;;;5.95;2.90;;;24.60;52.10;;;;;;5002384;28;20026;-59
2023/06/07 08:14:56;;;;;;;3.90;2.67;;;24.70;49.90;;;;;;5015248;28;20037;-62
2023/06/07 08:17:21;;;;;;;8.85;3.10;;;24.80;51.20;;;;;;5013203;28;20037;-60
2023/06/07 08:19:47;;;;;;;4.72;3.03;;;24.90;50.30;;;;;;5014795;28;20036;-59
2023/06/07 08:22:13;;;;;;;4.03;2.63;;;24.90;51.00;;;;;;5012590;28;20048;-58
2023/06/07 08:24:39;;;;;;;6.95;3.08;;;24.90;49.30;;;;;;5013034;28;20092;-60
2023/06/07 08:27:06;;;;;;;3.17;2.35;;;24.80;50.10;;;;;;5014549;28;20091;-59
2023/06/07 08:29:31;;;;;;;3.95;2.30;;;24.80;50.10;;;;;;5013285;28;20018;-60
2023/06/07 08:31:57;;;;;;;5.63;2.90;;;24.90;49.30;;;;;;5015635;28;20032;-58
2023/06/07 08:34:27;;;;;;;4.65;2.33;;;25.00;50.80;;;;;;5014437;28;20026;-60
2023/06/07 08:36:54;;;;;;;4.47;2.60;;;25.00;50.80;;;;;;5015057;28;20044;-60
2023/06/07 08:39:20;;;;;;;4.22;2.50;;;25.10;51.00;;;;;;5013251;28;20084;-59
2023/06/07 08:41:46;;;;;;;6.65;2.70;;;25.10;49.60;;;;;;5015156;28;20042;-61
2023/06/07 08:44:12;;;;;;;4.13;2.55;;;25.10;49.10;;;;;;5007131;28;20041;-62
2023/06/07 08:46:39;;;;;;;5.03;2.75;;;25.00;49.60;;;;;;5004746;28;20128;-62
2023/06/07 08:49:05;;;;;;;4.68;2.50;;;24.90;49.50;;;;;;5003422;28;20593;-61
2023/06/07 08:51:36;;;;;;;4.63;2.50;;;24.90;48.50;;;;;;5014800;28;20494;-62
2023/06/07 08:54:03;;;;;;;2.97;2.38;;;25.00;47.90;;;;;;5011448;28;20052;-62
2023/06/07 08:56:33;;;;;;;3.40;2.40;;;25.00;48.00;;;;;;5003881;28;20035;-62
2023/06/07 08:59:01;;;;;;;3.30;2.17;;;25.00;47.70;;;;;;5008670;28;20211;-62
2023/06/07 09:01:29;;;;;;;5.05;2.47;;;25.00;47.20;;;;;;5004680;28;20042;-61
2023/06/07 09:03:55;;;;;;;2.67;2.42;;;25.20;47.30;;;;;;5008481;28;20156;-59
2023/06/07 09:06:22;;;;;;;5.28;2.60;;;25.20;47.50;;;;;;5011827;28;20066;-59
2023/06/07 09:08:48;;;;;;;5.20;2.72;;;25.30;46.80;;;;;;5015299;28;20044;-60
2023/06/07 09:11:15;;;;;;;3.90;2.65;;;25.40;47.60;;;;;;5011395;28;20037;-59
2023/06/07 09:13:41;;;;;;;3.38;2.30;;;25.60;47.10;;;;;;5015392;28;20032;-60
2023/06/07 09:16:11;;;;;;;4.50;2.55;;;25.70;46.50;;;;;;5012113;28;20128;-60
2023/06/07 09:18:44;;;;;;;6.18;2.45;;;25.80;47.20;;;;;;4993885;28;20189;-60
2023/06/07 09:21:24;;;;;;;6.18;2.17;;;25.80;47.10;;;;;;5013680;28;20108;-60
2023/06/07 09:23:51;;;;;;;3.63;2.53;;;26.00;45.70;;;;;;5009464;28;20045;-59
2023/06/07 09:26:18;;;;;;;4.93;2.50;;;25.90;46.90;;;;;;5009161;28;20029;-60
2023/06/07 09:28:46;;;;;;;4.00;2.55;;;26.00;47.80;;;;;;5018397;28;20030;-59
2023/06/07 09:31:12;;;;;;;6.03;2.40;;;26.10;47.60;;;;;;5014260;28;20036;-59
2023/06/07 09:33:39;;;;;;;4.07;2.78;;;26.10;46.60;;;;;;5011135;28;20796;-60
2023/06/07 09:36:09;;;;;;;4.55;2.35;;;26.10;47.30;;;;;;5011414;28;20032;-59
2023/06/07 09:38:36;;;;;;;4.80;2.50;;;26.10;47.00;;;;;;5008780;28;20088;-59
2023/06/07 09:41:04;;;;;;;8.77;2.80;;;26.20;47.10;;;;;;5012032;28;20060;-59
2023/06/07 09:43:54;;;;;;;3.05;2.30;;;26.30;46.80;;;;;;5013257;28;20030;-60
2023/06/07 09:46:20;;;;;;;4.30;2.42;;;26.50;46.70;;;;;;5009370;28;20080;-59
2023/06/07 09:48:54;;;;;;;4.18;2.67;;;26.50;46.40;;;;;;5016674;28;20033;-59
2023/06/07 09:51:20;;;;;;;7.38;2.72;;;26.50;46.10;;;;;;5011173;28;20035;-59
2023/06/07 09:53:52;;;;;;;5.18;2.88;;;26.70;46.20;;;;;;5012949;28;20030;-61
2023/06/07 09:56:22;;;;;;;3.17;2.55;;;26.90;46.40;;;;;;5011008;28;20038;-59
2023/06/07 09:59:10;;;;;;;8.43;2.65;;;27.00;46.10;;;;;;5014323;28;20481;-59
2023/06/07 10:01:38;;;;;;;6.43;2.70;;;27.00;46.10;;;;;;5012574;28;20036;-59
2023/06/07 10:04:07;;;;;;;2.83;2.20;;;27.10;43.50;;;;;;5014717;28;20752;-58
2023/06/07 10:06:37;;;;;;;2.70;2.42;;;27.10;44.20;;;;;;5014010;28;20774;-58
2023/06/07 10:09:05;;;;;;;4.32;2.13;;;26.90;43.80;;;;;;5010550;28;20044;-59
2023/06/07 10:11:36;;;;;;;3.80;2.20;;;26.90;43.10;;;;;;5010219;28;20053;-59
2023/06/07 10:14:12;;;;;;;3.90;2.55;;;26.80;44.20;;;;;;5013497;28;20037;-59
2023/06/07 10:16:52;;;;;;;4.75;2.38;;;26.70;44.40;;;;;;5012701;28;20030;-59
2023/06/07 10:19:25;;;;;;;4.72;2.20;;;26.70;44.70;;;;;;5006850;28;20034;-59
2023/06/07 10:21:54;;;;;;;4.22;2.47;;;26.80;44.50;;;;;;4976444;28;20085;-60
2023/06/07 10:24:53;;;;;;;2.38;2.00;;;26.80;43.10;;;;;;5009039;28;20292;-60
2023/06/07 10:27:23;;;;;;;3.00;2.13;;;27.00;43.20;;;;;;5002271;28;20041;-61
2023/06/07 10:30:06;;;;;;;4.32;2.00;;;27.10;43.90;;;;;;5008351;28;20775;-61
2023/06/07 10:32:34;;;;;;;6.40;2.08;;;27.10;43.90;;;;;;5010434;28;20038;-61
2023/06/07 10:35:02;;;;;;;8.85;3.13;;;27.00;44.20;;;;;;5010034;28;20025;-61
2023/06/07 10:37:33;;;;;;;5.13;2.28;;;27.00;44.10;;;;;;5007544;28;20045;-62
2023/06/07 10:40:05;;;;;;;7.22;2.72;;;26.80;44.00;;;;;;5011221;28;20061;-60
2023/06/07 10:42:32;;;;;;;5.95;2.50;;;26.80;44.50;;;;;;5019246;28;20060;-61
2023/06/07 10:44:57;;;;;;;3.58;2.85;;;27.10;43.30;;;;;;5011511;28;20120;-61
2023/06/07 10:47:27;;;;;;;5.75;2.53;;;27.00;43.80;;;;;;4995667;28;20034;-61
2023/06/07 10:49:54;;;;;;;4.00;2.50;;;27.20;43.80;;;;;;5002328;28;20433;-63
2023/06/07 10:52:21;;;;;;;3.00;2.40;;;27.30;43.50;;;;;;5001788;28;20061;-62
2023/06/07 10:54:46;;;;;;;4.57;2.53;;;27.30;43.90;;;;;;5001170;28;20037;-61
2023/06/07 10:57:12;;;;;;;7.07;2.40;;;27.40;43.60;;;;;;5005697;28;20088;-61
2023/06/07 10:59:39;;;;;;;5.18;2.60;;;27.60;43.70;;;;;;5001443;28;20048;-62
2023/06/07 11:02:26;;;;;;;3.40;2.22;;;27.70;43.60;;;;;;4998005;28;20030;-61
2023/06/07 11:05:00;;;;;;;3.10;2.45;;;27.80;43.20;;;;;;5001707;28;20033;-61
2023/06/07 11:07:30;;;;;;;4.07;2.70;;;27.70;42.30;;;;;;5007018;28;20099;-60
2023/06/07 11:10:07;;;;;;;4.28;2.38;;;27.60;42.40;;;;;;5012162;28;20029;-62
2023/06/07 11:12:43;;;;;;;6.05;2.60;;;27.50;42.50;;;;;;4983983;28;20034;-62
2023/06/07 11:15:21;;;;;;;3.47;2.70;;;27.40;43.60;;;;;;5004613;28;20034;-62
2023/06/07 11:18:01;;;;;;;7.43;2.58;;;27.50;43.00;;;;;;4995179;28;20038;-62
2023/06/07 11:20:35;;;;;;;4.00;2.45;;;27.60;43.00;;;;;;5006440;28;20037;-61
2023/06/07 11:23:21;;;;;;;5.97;2.53;;;27.60;43.10;;;;;;5006988;28;20056;-60
2023/06/07 11:25:53;;;;;;;6.20;2.78;;;27.50;42.80;;;;;;4990629;28;20045;-62
2023/06/07 11:28:23;;;;;;;5.55;2.50;;;27.60;42.90;;;;;;5008060;28;20035;-61
2023/06/07 11:30:51;;;;;;;7.63;2.42;;;27.60;42.90;;;;;;5005418;28;20037;-62
2023/06/07 11:33:21;;;;;;;3.80;2.33;;;27.50;42.70;;;;;;5005201;28;20087;-61
2023/06/07 11:35:50;;;;;;;2.40;2.08;;;27.60;42.40;;;;;;5001503;28;20493;-60
2023/06/07 11:38:17;;;;;;;5.38;2.30;;;27.70;43.30;;;;;;5005125;28;20068;-62
2023/06/07 11:40:44;;;;;;;6.85;3.22;;;27.70;42.10;;;;;;5006161;28;20053;-61
2023/06/07 11:43:11;;;;;;;3.35;2.30;;;27.90;42.80;;;;;;5008161;28;20552;-62
2023/06/07 11:45:39;;;;;;;4.22;2.55;;;27.90;41.90;;;;;;5009369;28;20030;-60
2023/06/07 11:48:06;;;;;;;4.63;2.70;;;27.80;42.30;;;;;;5001117;28;20536;-61
2023/06/07 11:50:33;;;;;;;3.03;2.10;;;27.80;41.70;;;;;;5008488;28;20041;-62
2023/06/07 11:52:59;;;;;;;3.40;2.58;;;27.80;42.00;;;;;;5012007;28;20105;-62
2023/06/07 11:55:25;;;;;;;4.10;2.00;;;27.90;41.60;;;;;;5001003;28;20043;-62
2023/06/07 11:57:53;;;;;;;4.10;2.28;;;27.90;40.60;;;;;;5003866;28;20491;-62
2023/06/07 12:00:23;;;;;;;4.40;2.28;;;27.90;40.70;;;;;;5008804;28;20768;-63
2023/06/07 12:02:52;;;;;;;3.22;2.00;;;28.00;41.30;;;;;;5001134;28;20030;-62
2023/06/07 12:05:20;;;;;;;6.07;2.92;;;28.20;42.00;;;;;;5012149;28;20033;-61
2023/06/07 12:07:59;;;;;;;4.13;2.40;;;28.50;41.80;;;;;;5019517;28;20030;-60
2023/06/07 12:10:27;;;;;;;5.25;2.65;;;28.70;41.40;;;;;;5004530;28;20502;-61
2023/06/07 12:13:18;;;;;;;4.75;1.95;;;28.90;41.90;;;;;;5008387;28;20133;-60
2023/06/07 12:15:46;;;;;;;4.45;2.20;;;29.00;41.80;;;;;;5001718;28;20022;-62
2023/06/07 12:18:13;;;;;;;3.03;2.10;;;29.00;40.40;;;;;;5005498;28;20038;-63
2023/06/07 12:20:44;;;;;;;5.25;2.22;;;29.00;40.90;;;;;;5011583;28;20038;-63
2023/06/07 12:23:11;;;;;;;3.40;2.00;;;28.80;40.80;;;;;;5011178;28;20073;-62
2023/06/07 12:25:38;;;;;;;7.45;2.38;;;28.80;41.70;;;;;;5010890;28;20037;-62
2023/06/07 12:28:08;;;;;;;2.83;1.95;;;28.90;40.60;;;;;;5008147;28;20607;-62
2023/06/07 12:30:39;;;;;;;3.90;2.60;;;28.90;40.30;;;;;;4993297;28;20763;-62
2023/06/07 12:33:13;;;;;;;4.22;2.10;;;29.10;40.10;;;;;;5001325;28;20026;-63
2023/06/07 12:35:40;;;;;;;2.90;1.80;;;29.20;41.10;;;;;;5002597;28;20030;-62
2023/06/07 12:38:06;;;;;;;3.78;2.20;;;29.40;40.40;;;;;;5005726;28;20030;-62
2023/06/07 12:40:33;;;;;;;4.85;2.15;;;29.50;39.80;;;;;;5013662;28;20038;-62
2023/06/07 12:42:59;;;;;;;2.80;2.20;;;29.50;39.20;;;;;;5004829;28;20041;-62
2023/06/07 12:45:25;;;;;;;5.13;2.45;;;29.60;39.20;;;;;;5002562;28;20067;-62
2023/06/07 12:47:51;;;;;;;3.85;2.30;;;29.50;38.70;;;;;;5009979;28;20104;-63
2023/06/07 12:50:17;;;;;;;5.43;2.53;;;29.50;38.90;;;;;;4992307;28;20034;-62
2023/06/07 12:52:43;;;;;;;4.80;2.40;;;29.50;38.60;;;;;;5007574;28;20030;-63